Accueil
METAR-TAF:

METAR-TAF

Aéroports :

Aérodrome de Forlì

Forlì, Italie

latitude: 44-12N, longitude: 012-04E, altitude: 27 m

Observation

Le bulletin a été fait il y a 1 heure et 24 minutes, à 20:50 UTC
Vent 4 kt de sud
Température 14°C
Humidité 77%
Pression 1004 hPa
Visibilité 10 km ou plus
pas de nuages en-dessous de 1500 mètres et pas de cumulonimbus.

METAR: LIPK 262050Z 18004KT CAVOK 14/10 Q1004

Heure: 00:14 (22:14 UTC)

Prévision

Le bulletin a été fait il y a 5 heures et 14 minutes, à 17:00 UTC
Prévision valable du 26 à 18 UTC au 27 à 18 UTC
Vent 5 kt de direction variable
Visibilité 10 km ou plus
Nuages épars à une hauteur de 2000 ft
Evoluant progressivement
du 27 à 05 UTC au 27 à 07 UTC
Vent 14 kt de ouest/sud-ouest
Temporairement
du 27 à 12 UTC au 27 à 17 UTC
pluie

TAF: LIPK 261700Z 2618/2718 VRB05KT 9999 SCT020 BECMG 2705/2707 24014KT TEMPO 2712/2717 RA

Observations et prévisions météorologiques de plus de 4000 aéroports (messages METAR et TAF).

Les stations disponibles sont représentées par des disques jaunes et rouges sur la carte.

Passer la souris dessus pour voir le nom de la station.

Cliquer dessus pour voir les observations et prévisions météorologiques.

Pour changer de carte: cliquez sur les boutons verts avec une croix noire pour zoomer, sur le bouton vert avec un tiret pour effectuer un zoom arrière, ou sur les flèches vertes pour les cartes adjacentes.


METAR-TAF: